Time;durP1;ratioP1;P1;durP2;ratioP2;P2;SDS_P1;SDS_P2;PMS_P1;PMS_P2;Temp;Humidity;BMP_temperature;BMP_pressure;BME280_temperature;BME280_humidity;BME280_pressure;Samples;Min_cycle;Max_cycle;Signal;HPM_P1;HPM_P2
2021/12/18 00:00:39;;;;;;;0.10;0.10;;;;;;;;;;4921556;29;20139;-92
2021/12/18 00:03:05;;;;;;;0.10;0.10;;;;;;;;;;4937262;29;20118;-92
2021/12/18 00:05:31;;;;;;;0.10;0.10;;;;;;;;;;4937047;29;20036;-92
2021/12/18 00:07:57;;;;;;;0.10;0.10;;;;;;;;;;4937578;29;20050;-93
2021/12/18 00:10:23;;;;;;;0.10;0.10;;;;;;;;;;4921442;29;20502;-92
2021/12/18 00:12:50;;;;;;;0.10;0.10;;;;;;;;;;4937346;29;20399;-92
2021/12/18 00:15:17;;;;;;;0.10;0.10;;;;;;;;;;4921380;29;20050;-92
2021/12/18 00:17:43;;;;;;;0.10;0.10;;;;;;;;;;4936917;29;20039;-92
2021/12/18 00:20:09;;;;;;;0.10;0.10;;;;;;;;;;4937552;29;20405;-93
2021/12/18 00:22:35;;;;;;;0.10;0.10;;;;;;;;;;4940605;29;20050;-92
2021/12/18 00:25:01;;;;;;;0.10;0.10;;;;;;;;;;4924554;29;20039;-92
2021/12/18 00:27:27;;;;;;;0.10;0.10;;;;;;;;;;4924548;29;20372;-92
2021/12/18 00:29:53;;;;;;;0.10;0.10;;;;;;;;;;4924580;29;20286;-92
2021/12/18 00:32:19;;;;;;;0.10;0.10;;;;;;;;;;4940513;29;20054;-93
2021/12/18 00:34:45;;;;;;;0.10;0.10;;;;;;;;;;4924526;29;20049;-92
2021/12/18 00:37:11;;;;;;;0.10;0.10;;;;;;;;;;4939906;29;20061;-92
2021/12/18 00:39:43;;;;;;;0.10;0.10;;;;;;;;;;4940050;29;20103;-93
2021/12/18 00:44:47;;;;;;;0.10;0.10;;;;;;;;;;4942286;29;20134;-93
2021/12/18 00:47:13;;;;;;;0.10;0.10;;;;;;;;;;4924106;29;20055;-93
2021/12/18 00:49:39;;;;;;;0.10;0.10;;;;;;;;;;4939969;29;20039;-94
2021/12/18 00:52:08;;;;;;;0.10;0.10;;;;;;;;;;4940644;29;20366;-93
2021/12/18 00:54:35;;;;;;;0.10;0.10;;;;;;;;;;4924422;29;20126;-93
2021/12/18 00:57:01;;;;;;;0.10;0.10;;;;;;;;;;4939979;29;20465;-93
2021/12/18 00:59:27;;;;;;;0.10;0.10;;;;;;;;;;4939930;29;20051;-92
2021/12/18 01:01:53;;;;;;;0.10;0.10;;;;;;;;;;4923943;29;20050;-92
2021/12/18 01:04:20;;;;;;;0.10;0.10;;;;;;;;;;4924371;29;20043;-93
2021/12/18 01:06:46;;;;;;;0.10;0.10;;;;;;;;;;4939862;29;20043;-93
2021/12/18 01:09:12;;;;;;;0.10;0.10;;;;;;;;;;4924087;29;20451;-93
2021/12/18 01:11:44;;;;;;;0.10;0.10;;;;;;;;;;4924036;28;20063;-93
2021/12/18 01:25:12;;;;;;;0.10;0.10;;;;;;;;;;4942153;29;20043;-94
2021/12/18 01:27:38;;;;;;;0.10;0.10;;;;;;;;;;4923776;29;20126;-93
2021/12/18 01:30:04;;;;;;;0.10;0.10;;;;;;;;;;4923665;29;20138;-94
2021/12/18 01:32:31;;;;;;;0.10;0.10;;;;;;;;;;4922366;29;20047;-91
2021/12/18 01:34:57;;;;;;;0.10;0.10;;;;;;;;;;4954931;29;20094;-91
2021/12/18 01:37:23;;;;;;;0.10;0.10;;;;;;;;;;4922971;29;20051;-92
2021/12/18 01:39:52;;;;;;;0.10;0.10;;;;;;;;;;4923105;29;20070;-92
2021/12/18 01:43:07;;;;;;;0.28;0.28;;;;;;;;;;4923129;29;20065;-92
2021/12/18 01:45:32;;;;;;;0.10;0.10;;;;;;;;;;4942912;29;20126;-93
2021/12/18 01:51:17;;;;;;;0.10;0.10;;;;;;;;;;4889527;29;20044;-91
2021/12/18 01:53:43;;;;;;;0.10;0.10;;;;;;;;;;4883880;29;20044;-92
2021/12/18 01:56:09;;;;;;;0.10;0.10;;;;;;;;;;4898914;29;20129;-93
2021/12/18 01:58:36;;;;;;;0.10;0.10;;;;;;;;;;4938756;29;20483;-93
2021/12/18 02:01:03;;;;;;;0.10;0.10;;;;;;;;;;4923379;29;20060;-92
2021/12/18 02:03:29;;;;;;;0.20;0.20;;;;;;;;;;4939087;29;20039;-93
2021/12/18 02:05:55;;;;;;;0.10;0.10;;;;;;;;;;4923187;29;20039;-93
2021/12/18 02:08:22;;;;;;;0.10;0.10;;;;;;;;;;4923322;29;20045;-93
2021/12/18 02:10:54;;;;;;;0.10;0.10;;;;;;;;;;4923336;29;20043;-92
2021/12/18 02:13:36;;;;;;;0.10;0.10;;;;;;;;;;4923808;29;20047;-92
2021/12/18 02:21:32;;;;;;;0.10;0.10;;;;;;;;;;4940972;28;20090;-92
2021/12/18 02:23:58;;;;;;;0.10;0.10;;;;;;;;;;4922620;29;20039;-92
2021/12/18 02:26:24;;;;;;;0.10;0.10;;;;;;;;;;4938415;29;20043;-92
2021/12/18 02:28:52;;;;;;;0.10;0.10;;;;;;;;;;4922303;29;20150;-93
2021/12/18 02:31:18;;;;;;;0.10;0.10;;;;;;;;;;4922577;29;20470;-92
2021/12/18 02:33:44;;;;;;;0.10;0.10;;;;;;;;;;4922149;29;20046;-91
2021/12/18 02:36:12;;;;;;;0.10;0.10;;;;;;;;;;4922384;29;20062;-93
2021/12/18 02:41:26;;;;;;;0.10;0.10;;;;;;;;;;4939025;29;20110;-91
2021/12/18 02:43:52;;;;;;;0.10;0.10;;;;;;;;;;4923450;29;20495;-92
2021/12/18 02:46:20;;;;;;;0.10;0.10;;;;;;;;;;4938060;29;20573;-94
2021/12/18 02:48:46;;;;;;;0.10;0.10;;;;;;;;;;4938627;29;20043;-94
2021/12/18 02:51:13;;;;;;;0.10;0.10;;;;;;;;;;4922450;29;20094;-93
2021/12/18 02:53:41;;;;;;;0.10;0.10;;;;;;;;;;4922129;29;20094;-94
2021/12/18 02:56:09;;;;;;;0.10;0.10;;;;;;;;;;4922062;29;20411;-92
2021/12/18 02:58:38;;;;;;;0.10;0.10;;;;;;;;;;4921872;29;20062;-93
2021/12/18 03:01:05;;;;;;;0.10;0.10;;;;;;;;;;4922197;29;20047;-92
2021/12/18 03:03:34;;;;;;;0.10;0.10;;;;;;;;;;4937887;29;20043;-92
2021/12/18 03:06:20;;;;;;;0.10;0.10;;;;;;;;;;4922300;29;20039;-92
2021/12/18 03:08:59;;;;;;;0.10;0.10;;;;;;;;;;4940517;29;20047;-92
2021/12/18 03:25:25;;;;;;;0.10;0.10;;;;;;;;;;4937838;29;20066;-93
2021/12/18 03:27:52;;;;;;;0.10;0.10;;;;;;;;;;4923428;29;20198;-93
2021/12/18 03:30:18;;;;;;;0.10;0.10;;;;;;;;;;4921989;29;20133;-94
2021/12/18 03:32:44;;;;;;;0.10;0.10;;;;;;;;;;4921809;29;20043;-93
2021/12/18 03:35:10;;;;;;;0.10;0.10;;;;;;;;;;4922117;29;20119;-93
2021/12/18 03:37:37;;;;;;;0.10;0.10;;;;;;;;;;4921717;29;20087;-93
2021/12/18 03:40:04;;;;;;;0.10;0.10;;;;;;;;;;4921561;29;20141;-93
2021/12/18 03:42:30;;;;;;;0.10;0.10;;;;;;;;;;4921662;29;20047;-92
2021/12/18 03:44:56;;;;;;;0.10;0.10;;;;;;;;;;4937134;29;20040;-92
2021/12/18 03:47:22;;;;;;;0.10;0.10;;;;;;;;;;4921220;29;20406;-92
2021/12/18 03:49:47;;;;;;;0.10;0.10;;;;;;;;;;4937645;29;20503;-93
2021/12/18 03:52:14;;;;;;;0.10;0.10;;;;;;;;;;4921194;29;20050;-92
2021/12/18 03:54:40;;;;;;;0.10;0.10;;;;;;;;;;4921410;29;20062;-92
2021/12/18 03:57:06;;;;;;;0.10;0.10;;;;;;;;;;4924813;29;20475;-93
2021/12/18 03:59:32;;;;;;;0.10;0.10;;;;;;;;;;4925305;29;20546;-92
2021/12/18 04:01:58;;;;;;;0.10;0.10;;;;;;;;;;4925429;29;20043;-92
2021/12/18 04:04:24;;;;;;;0.65;0.50;;;;;;;;;;4925345;29;20093;-93
2021/12/18 04:06:50;;;;;;;0.10;0.10;;;;;;;;;;4941357;29;20051;-93
2021/12/18 04:09:16;;;;;;;0.10;0.10;;;;;;;;;;4925156;29;20134;-93
2021/12/18 04:11:42;;;;;;;0.10;0.10;;;;;;;;;;4940667;28;20054;-93
2021/12/18 04:14:10;;;;;;;0.10;0.10;;;;;;;;;;4941339;29;20043;-92
2021/12/18 04:16:36;;;;;;;0.10;0.10;;;;;;;;;;4940604;29;20043;-93
2021/12/18 04:19:02;;;;;;;0.10;0.10;;;;;;;;;;4925087;29;20043;-93
2021/12/18 04:21:29;;;;;;;0.10;0.10;;;;;;;;;;4924954;28;20482;-93
2021/12/18 04:23:55;;;;;;;0.10;0.10;;;;;;;;;;4924596;29;20615;-92
2021/12/18 04:26:21;;;;;;;0.10;0.10;;;;;;;;;;4924780;29;20095;-93
2021/12/18 04:28:47;;;;;;;0.10;0.10;;;;;;;;;;4924735;29;20480;-92
2021/12/18 04:31:13;;;;;;;0.10;0.10;;;;;;;;;;4940707;29;20047;-93
2021/12/18 04:33:39;;;;;;;0.10;0.10;;;;;;;;;;4940534;29;20055;-92
2021/12/18 04:36:05;;;;;;;0.10;0.10;;;;;;;;;;4924168;29;20051;-92
2021/12/18 04:38:31;;;;;;;0.10;0.10;;;;;;;;;;4924303;29;20110;-92
2021/12/18 04:40:57;;;;;;;0.10;0.10;;;;;;;;;;4924457;29;20075;-91
2021/12/18 04:43:23;;;;;;;0.10;0.10;;;;;;;;;;4939903;29;20121;-92
2021/12/18 04:45:49;;;;;;;0.10;0.10;;;;;;;;;;4940122;29;20439;-92
2021/12/18 04:48:15;;;;;;;0.10;0.10;;;;;;;;;;4939578;29;20069;-92
2021/12/18 04:50:41;;;;;;;0.10;0.10;;;;;;;;;;4940034;29;20043;-92
2021/12/18 04:53:07;;;;;;;0.10;0.10;;;;;;;;;;4924185;29;20046;-92
2021/12/18 04:55:34;;;;;;;0.10;0.10;;;;;;;;;;4923875;29;20105;-91
2021/12/18 04:58:00;;;;;;;0.10;0.10;;;;;;;;;;4923968;29;20474;-92
2021/12/18 05:00:36;;;;;;;0.10;0.10;;;;;;;;;;4923810;29;20043;-92
2021/12/18 05:03:05;;;;;;;0.10;0.10;;;;;;;;;;4925268;29;20042;-92
2021/12/18 05:05:31;;;;;;;0.10;0.10;;;;;;;;;;4924754;29;20047;-93
2021/12/18 05:07:57;;;;;;;0.10;0.10;;;;;;;;;;4923607;29;20119;-92
2021/12/18 05:10:23;;;;;;;0.10;0.10;;;;;;;;;;4924153;29;20059;-92
2021/12/18 05:12:49;;;;;;;0.10;0.10;;;;;;;;;;4923697;29;20095;-92
2021/12/18 05:15:15;;;;;;;0.10;0.10;;;;;;;;;;4923828;29;20039;-92
2021/12/18 05:17:41;;;;;;;0.10;0.10;;;;;;;;;;4955187;29;20071;-92
2021/12/18 05:20:07;;;;;;;0.10;0.10;;;;;;;;;;4923671;29;20036;-93
2021/12/18 05:22:33;;;;;;;0.10;0.10;;;;;;;;;;4924357;29;20047;-93
2021/12/18 05:24:59;;;;;;;0.10;0.10;;;;;;;;;;4923832;29;20043;-93
2021/12/18 05:27:25;;;;;;;0.10;0.10;;;;;;;;;;4923929;29;20518;-93
2021/12/18 05:29:51;;;;;;;0.10;0.10;;;;;;;;;;4939884;29;20116;-93
2021/12/18 05:32:23;;;;;;;0.10;0.10;;;;;;;;;;4925039;29;20065;-93
2021/12/18 05:34:49;;;;;;;0.10;0.10;;;;;;;;;;4923575;29;20286;-94
2021/12/18 05:37:19;;;;;;;0.10;0.10;;;;;;;;;;4923277;29;20055;-94
2021/12/18 05:39:47;;;;;;;;;;;;;;;;;;4925695;29;20474;-93
2021/12/18 05:42:13;;;;;;;0.10;0.10;;;;;;;;;;4938856;29;19918;-94
2021/12/18 05:44:40;;;;;;;0.10;0.10;;;;;;;;;;4923466;29;20047;-95
2021/12/18 05:47:06;;;;;;;0.10;0.10;;;;;;;;;;4923201;29;20043;-93
2021/12/18 05:49:32;;;;;;;0.10;0.10;;;;;;;;;;4923064;29;20043;-93
2021/12/18 05:51:58;;;;;;;0.10;0.10;;;;;;;;;;4923300;29;20043;-92
2021/12/18 05:54:24;;;;;;;0.10;0.10;;;;;;;;;;4938958;29;20086;-93
2021/12/18 05:56:50;;;;;;;0.10;0.10;;;;;;;;;;4939075;29;20047;-92
2021/12/18 05:59:16;;;;;;;0.10;0.10;;;;;;;;;;4923214;29;20054;-92
2021/12/18 06:01:42;;;;;;;0.10;0.10;;;;;;;;;;4922903;28;20039;-92
2021/12/18 06:04:08;;;;;;;0.10;0.10;;;;;;;;;;4922853;29;20054;-92
2021/12/18 06:06:34;;;;;;;0.10;0.10;;;;;;;;;;4922658;29;20222;-92
2021/12/18 06:09:00;;;;;;;0.10;0.10;;;;;;;;;;4922867;29;20187;-92
2021/12/18 06:11:28;;;;;;;0.10;0.10;;;;;;;;;;4938363;28;20126;-92
2021/12/18 06:13:54;;;;;;;0.10;0.10;;;;;;;;;;4923136;29;20113;-93
2021/12/18 06:16:20;;;;;;;0.10;0.10;;;;;;;;;;4938321;29;20129;-93
2021/12/18 06:18:49;;;;;;;0.63;0.10;;;;;;;;;;4922133;29;20102;-93
2021/12/18 06:21:15;;;;;;;0.10;0.10;;;;;;;;;;4923021;29;20078;-92
2021/12/18 06:23:41;;;;;;;0.10;0.10;;;;;;;;;;4922561;29;20091;-93
2021/12/18 06:26:07;;;;;;;0.10;0.10;;;;;;;;;;4954331;29;20073;-92
2021/12/18 06:28:33;;;;;;;0.10;0.10;;;;;;;;;;4922726;29;20062;-92
2021/12/18 06:31:01;;;;;;;0.10;0.10;;;;;;;;;;4938266;29;20054;-93
2021/12/18 06:33:27;;;;;;;0.10;0.10;;;;;;;;;;4922477;29;20045;-92
2021/12/18 06:35:53;;;;;;;0.10;0.10;;;;;;;;;;4937741;29;20137;-92
2021/12/18 06:38:19;;;;;;;0.10;0.10;;;;;;;;;;4938117;29;20043;-92
2021/12/18 06:40:45;;;;;;;0.10;0.10;;;;;;;;;;4937916;29;20039;-91
2021/12/18 06:43:11;;;;;;;0.10;0.10;;;;;;;;;;4953696;28;20082;-92
2021/12/18 06:45:37;;;;;;;0.10;0.10;;;;;;;;;;4922227;29;20066;-93
2021/12/18 06:48:03;;;;;;;0.10;0.10;;;;;;;;;;4938076;29;20074;-92
2021/12/18 06:50:29;;;;;;;0.10;0.10;;;;;;;;;;4938063;29;20054;-91
2021/12/18 06:52:55;;;;;;;0.10;0.10;;;;;;;;;;4921962;29;20039;-91
2021/12/18 06:55:21;;;;;;;0.10;0.10;;;;;;;;;;4937655;29;20075;-91
2021/12/18 06:57:47;;;;;;;0.10;0.10;;;;;;;;;;4921909;29;20364;-92
2021/12/18 07:00:13;;;;;;;0.10;0.10;;;;;;;;;;4921977;29;20043;-91
2021/12/18 07:02:40;;;;;;;0.10;0.10;;;;;;;;;;4937663;29;20085;-92
2021/12/18 07:05:06;;;;;;;0.10;0.10;;;;;;;;;;4921476;29;20050;-93
2021/12/18 07:07:32;;;;;;;0.10;0.10;;;;;;;;;;4921541;29;20042;-94
2021/12/18 07:09:58;;;;;;;0.10;0.10;;;;;;;;;;4921345;29;20079;-89
2021/12/18 07:12:24;;;;;;;0.10;0.10;;;;;;;;;;4952765;28;20074;-89
2021/12/18 07:14:50;;;;;;;0.10;0.10;;;;;;;;;;4937082;29;20047;-89
2021/12/18 07:17:16;;;;;;;0.10;0.10;;;;;;;;;;4936670;29;20043;-89
2021/12/18 07:19:42;;;;;;;0.10;0.10;;;;;;;;;;4936993;29;20439;-89
2021/12/18 07:22:08;;;;;;;0.10;0.10;;;;;;;;;;4936706;29;20043;-87
2021/12/18 07:24:34;;;;;;;0.10;0.10;;;;;;;;;;4952637;29;20050;-89
2021/12/18 07:27:00;;;;;;;0.15;0.10;;;;;;;;;;4937720;29;20097;-95
2021/12/18 07:29:26;;;;;;;0.10;0.10;;;;;;;;;;4937566;29;20050;-89
2021/12/18 07:31:52;;;;;;;0.10;0.10;;;;;;;;;;4956462;28;20043;-87
2021/12/18 07:34:18;;;;;;;0.10;0.10;;;;;;;;;;4940526;29;20130;-86
2021/12/18 07:36:44;;;;;;;0.10;0.10;;;;;;;;;;4940632;29;20086;-85
2021/12/18 07:39:11;;;;;;;0.10;0.10;;;;;;;;;;4956379;29;20472;-88
2021/12/18 07:41:37;;;;;;;0.10;0.10;;;;;;;;;;4956144;28;20051;-88
2021/12/18 07:44:06;;;;;;;0.10;0.10;;;;;;;;;;4940304;29;20507;-88
2021/12/18 07:46:32;;;;;;;0.10;0.10;;;;;;;;;;4940614;29;20135;-89
2021/12/18 07:48:58;;;;;;;0.10;0.10;;;;;;;;;;4925105;29;20143;-89
2021/12/18 07:51:24;;;;;;;0.10;0.10;;;;;;;;;;4924478;28;20039;-89
2021/12/18 07:53:50;;;;;;;0.10;0.10;;;;;;;;;;4940160;29;20102;-87
2021/12/18 07:56:16;;;;;;;0.10;0.10;;;;;;;;;;4956225;29;20089;-87
2021/12/18 07:58:42;;;;;;;0.10;0.10;;;;;;;;;;4940057;29;20086;-87
2021/12/18 08:01:09;;;;;;;0.10;0.10;;;;;;;;;;4940273;29;20039;-88
2021/12/18 08:03:35;;;;;;;0.10;0.10;;;;;;;;;;4940405;29;20491;-88
2021/12/18 08:06:01;;;;;;;0.10;0.10;;;;;;;;;;4940258;29;20046;-87
2021/12/18 08:08:27;;;;;;;0.10;0.10;;;;;;;;;;4940291;29;20103;-89
2021/12/18 08:10:53;;;;;;;0.10;0.10;;;;;;;;;;4924173;29;20039;-88
2021/12/18 08:13:19;;;;;;;0.00;0.00;;;;;;;;;;4939954;29;20082;-88
2021/12/18 08:15:45;;;;;;;0.10;0.10;;;;;;;;;;4939978;29;20051;-88
2021/12/18 08:18:11;;;;;;;0.10;0.10;;;;;;;;;;4939939;29;20127;-89
2021/12/18 08:20:37;;;;;;;0.10;0.10;;;;;;;;;;4940456;29;20114;-91
2021/12/18 08:23:03;;;;;;;0.10;0.10;;;;;;;;;;4924512;29;20090;-90
2021/12/18 08:25:29;;;;;;;0.10;0.10;;;;;;;;;;4940389;29;20455;-91
2021/12/18 08:27:57;;;;;;;0.10;0.10;;;;;;;;;;4956133;29;20047;-90
2021/12/18 08:30:24;;;;;;;0.10;0.10;;;;;;;;;;4925492;29;20530;-90
2021/12/18 08:32:50;;;;;;;0.10;0.10;;;;;;;;;;4926416;29;20133;-91
2021/12/18 08:35:15;;;;;;;0.10;0.10;;;;;;;;;;4942965;29;20455;-91
2021/12/18 08:37:41;;;;;;;0.10;0.10;;;;;;;;;;4943001;29;20065;-91
2021/12/18 08:40:08;;;;;;;0.10;0.10;;;;;;;;;;4927242;29;20054;-91
2021/12/18 08:42:34;;;;;;;0.10;0.10;;;;;;;;;;4942368;29;20066;-90
2021/12/18 08:45:00;;;;;;;0.10;0.10;;;;;;;;;;4927005;29;20403;-90
2021/12/18 08:47:26;;;;;;;0.10;0.10;;;;;;;;;;4942696;29;20055;-91
2021/12/18 08:49:52;;;;;;;0.10;0.10;;;;;;;;;;4926502;29;20615;-90
2021/12/18 08:52:18;;;;;;;0.10;0.10;;;;;;;;;;4927103;29;20083;-91
2021/12/18 08:54:44;;;;;;;0.10;0.10;;;;;;;;;;4942652;29;20477;-91
2021/12/18 08:57:10;;;;;;;0.10;0.10;;;;;;;;;;4942439;29;20083;-91
2021/12/18 08:59:37;;;;;;;0.10;0.10;;;;;;;;;;4927276;29;20359;-90
2021/12/18 09:02:03;;;;;;;0.10;0.10;;;;;;;;;;4942499;29;20094;-91
2021/12/18 09:04:29;;;;;;;0.10;0.10;;;;;;;;;;4942782;29;20103;-91
2021/12/18 09:06:55;;;;;;;0.10;0.10;;;;;;;;;;4942450;29;20089;-91
2021/12/18 09:09:21;;;;;;;0.10;0.10;;;;;;;;;;4926249;29;20074;-91
2021/12/18 09:11:47;;;;;;;0.10;0.10;;;;;;;;;;4924219;29;20047;-90
2021/12/18 09:14:13;;;;;;;0.10;0.10;;;;;;;;;;4923315;29;20458;-91
2021/12/18 09:16:39;;;;;;;0.10;0.10;;;;;;;;;;4939611;29;20054;-91
2021/12/18 09:19:05;;;;;;;0.10;0.10;;;;;;;;;;4923589;29;20039;-90
2021/12/18 09:21:31;;;;;;;0.10;0.10;;;;;;;;;;4939501;28;20090;-90
2021/12/18 09:23:57;;;;;;;0.10;0.10;;;;;;;;;;4939223;29;20497;-91
2021/12/18 09:26:23;;;;;;;0.10;0.10;;;;;;;;;;4939502;29;20035;-91
2021/12/18 09:28:49;;;;;;;0.10;0.10;;;;;;;;;;4954871;29;20126;-91
2021/12/18 09:31:15;;;;;;;0.10;0.10;;;;;;;;;;4923287;29;20170;-90
2021/12/18 09:33:41;;;;;;;0.10;0.10;;;;;;;;;;4938759;29;20043;-90
2021/12/18 09:36:07;;;;;;;0.10;0.10;;;;;;;;;;4923418;29;20066;-91
2021/12/18 09:38:33;;;;;;;0.10;0.10;;;;;;;;;;4922972;29;20047;-90
2021/12/18 09:40:59;;;;;;;0.10;0.10;;;;;;;;;;4922864;29;20075;-91
2021/12/18 09:43:26;;;;;;;0.10;0.10;;;;;;;;;;4922948;29;20139;-91
2021/12/18 09:45:52;;;;;;;0.10;0.10;;;;;;;;;;4938431;29;20062;-91
2021/12/18 09:48:18;;;;;;;0.10;0.10;;;;;;;;;;4922892;29;20103;-91
2021/12/18 09:50:48;;;;;;;0.10;0.10;;;;;;;;;;4922880;29;20126;-91
2021/12/18 09:53:14;;;;;;;0.10;0.10;;;;;;;;;;4922550;29;20055;-91
2021/12/18 09:55:40;;;;;;;0.10;0.10;;;;;;;;;;4938745;29;20502;-90
2021/12/18 09:58:06;;;;;;;0.10;0.10;;;;;;;;;;4922526;29;20392;-90
2021/12/18 10:00:32;;;;;;;0.10;0.10;;;;;;;;;;4954085;29;20042;-90
2021/12/18 10:02:58;;;;;;;0.10;0.10;;;;;;;;;;4938262;29;20122;-90
2021/12/18 10:05:25;;;;;;;0.10;0.10;;;;;;;;;;4938413;29;20066;-91
2021/12/18 10:08:04;;;;;;;0.10;0.10;;;;;;;;;;4938585;29;20043;-90
2021/12/18 10:10:30;;;;;;;0.10;0.10;;;;;;;;;;4922170;29;20455;-90
2021/12/18 10:13:06;;;;;;;0.10;0.10;;;;;;;;;;4922530;29;20043;-90
2021/12/18 10:15:32;;;;;;;0.10;0.10;;;;;;;;;;4938225;29;20047;-90
2021/12/18 10:18:08;;;;;;;0.10;0.10;;;;;;;;;;4922095;29;20050;-91
2021/12/18 10:20:34;;;;;;;0.10;0.10;;;;;;;;;;4922035;29;20126;-90
2021/12/18 10:23:04;;;;;;;0.10;0.10;;;;;;;;;;4937774;29;20054;-91
2021/12/18 10:25:32;;;;;;;0.10;0.10;;;;;;;;;;4938641;29;20058;-90
2021/12/18 10:28:00;;;;;;;0.10;0.10;;;;;;;;;;4921969;29;20039;-91
2021/12/18 10:30:26;;;;;;;0.10;0.10;;;;;;;;;;4937698;29;20043;-91
2021/12/18 10:33:01;;;;;;;0.10;0.10;;;;;;;;;;4937750;29;20074;-91
2021/12/18 10:35:37;;;;;;;0.10;0.10;;;;;;;;;;4937527;29;20043;-90
2021/12/18 10:38:03;;;;;;;0.20;0.20;;;;;;;;;;4921789;29;20047;-90
2021/12/18 10:40:34;;;;;;;0.10;0.10;;;;;;;;;;4921677;29;20046;-91
2021/12/18 10:43:00;;;;;;;0.10;0.10;;;;;;;;;;4921674;29;20243;-91
2021/12/18 10:45:26;;;;;;;0.10;0.10;;;;;;;;;;4922277;29;20147;-91
2021/12/18 10:48:02;;;;;;;0.10;0.10;;;;;;;;;;4937543;29;20043;-91
2021/12/18 10:50:29;;;;;;;0.10;0.10;;;;;;;;;;4937385;29;20051;-90
2021/12/18 10:53:01;;;;;;;0.10;0.10;;;;;;;;;;4921918;29;20360;-91
2021/12/18 10:56:00;;;;;;;0.10;0.10;;;;;;;;;;4921389;29;20039;-91
2021/12/18 10:58:28;;;;;;;0.10;0.10;;;;;;;;;;4916208;29;20117;-90
2021/12/18 11:00:59;;;;;;;0.10;0.10;;;;;;;;;;4921918;29;20043;-91
2021/12/18 11:03:29;;;;;;;0.10;0.10;;;;;;;;;;4937283;29;20039;-90
2021/12/18 11:06:11;;;;;;;0.10;0.10;;;;;;;;;;4921401;29;20039;-91
2021/12/18 11:08:56;;;;;;;0.10;0.10;;;;;;;;;;4937103;29;20039;-91
2021/12/18 11:14:01;;;;;;;0.10;0.10;;;;;;;;;;4938665;29;20394;-91
2021/12/18 11:16:28;;;;;;;0.10;0.10;;;;;;;;;;4936817;29;20102;-90
2021/12/18 11:18:54;;;;;;;0.10;0.10;;;;;;;;;;4937349;29;20047;-91
2021/12/18 11:21:20;;;;;;;0.10;0.10;;;;;;;;;;4921213;28;20436;-92
2021/12/18 11:23:56;;;;;;;0.10;0.10;;;;;;;;;;4921365;29;20082;-92
2021/12/18 11:26:22;;;;;;;0.10;0.10;;;;;;;;;;4937227;29;20057;-90
2021/12/18 11:28:49;;;;;;;0.10;0.10;;;;;;;;;;4921183;29;20054;-90
2021/12/18 11:31:15;;;;;;;0.10;0.10;;;;;;;;;;4937204;29;20049;-91
2021/12/18 11:33:41;;;;;;;0.10;0.10;;;;;;;;;;4937085;29;20047;-91
2021/12/18 11:36:08;;;;;;;0.10;0.10;;;;;;;;;;4921529;29;20359;-91
2021/12/18 11:38:34;;;;;;;0.10;0.10;;;;;;;;;;4921433;29;20043;-91
2021/12/18 11:41:00;;;;;;;0.10;0.10;;;;;;;;;;4921762;29;20043;-91
2021/12/18 11:43:36;;;;;;;0.10;0.10;;;;;;;;;;4921069;29;20436;-91
2021/12/18 11:46:03;;;;;;;0.10;0.10;;;;;;;;;;4938723;29;20066;-91
2021/12/18 11:48:49;;;;;;;0.10;0.10;;;;;;;;;;4924965;29;20075;-91
2021/12/18 11:51:15;;;;;;;0.10;0.10;;;;;;;;;;4940967;29;20051;-91
2021/12/18 11:53:42;;;;;;;0.10;0.10;;;;;;;;;;4975126;28;20031;-91
2021/12/18 11:56:08;;;;;;;0.10;0.10;;;;;;;;;;4960376;29;20102;-91
2021/12/18 11:58:35;;;;;;;0.10;0.10;;;;;;;;;;4921151;29;20044;-90
2021/12/18 12:01:03;;;;;;;0.10;0.10;;;;;;;;;;4920877;29;20035;-91
2021/12/18 12:03:36;;;;;;;0.10;0.10;;;;;;;;;;4936756;29;20064;-91
2021/12/18 12:06:04;;;;;;;0.10;0.10;;;;;;;;;;4921356;29;20506;-91
2021/12/18 12:08:37;;;;;;;0.10;0.10;;;;;;;;;;4952587;29;20578;-91
2021/12/18 12:11:15;;;;;;;0.10;0.10;;;;;;;;;;4936553;29;20047;-91
2021/12/18 12:14:00;;;;;;;0.43;0.20;;;;;;;;;;4922057;29;20047;-91
2021/12/18 12:16:45;;;;;;;0.10;0.10;;;;;;;;;;4921980;29;20438;-91
2021/12/18 12:19:11;;;;;;;0.10;0.10;;;;;;;;;;4956476;29;20392;-91
2021/12/18 12:21:44;;;;;;;0.10;0.10;;;;;;;;;;4924480;28;20554;-91
2021/12/18 12:24:11;;;;;;;0.10;0.10;;;;;;;;;;4939884;29;20097;-91
2021/12/18 12:26:37;;;;;;;0.13;0.13;;;;;;;;;;4940301;29;20478;-91
2021/12/18 12:29:03;;;;;;;0.10;0.10;;;;;;;;;;4924461;29;20118;-91
2021/12/18 12:31:29;;;;;;;0.10;0.10;;;;;;;;;;4955681;28;20051;-91
2021/12/18 12:34:15;;;;;;;0.10;0.10;;;;;;;;;;4940135;29;20043;-91
2021/12/18 12:36:45;;;;;;;0.30;0.30;;;;;;;;;;4933150;29;20051;-91
2021/12/18 12:39:11;;;;;;;0.10;0.10;;;;;;;;;;4924897;29;20053;-90
2021/12/18 12:41:38;;;;;;;0.10;0.10;;;;;;;;;;4923623;28;20126;-91
2021/12/18 12:44:11;;;;;;;0.10;0.10;;;;;;;;;;4924470;29;20157;-91
2021/12/18 12:46:37;;;;;;;0.10;0.10;;;;;;;;;;4924850;29;20094;-91
2021/12/18 12:49:05;;;;;;;0.10;0.10;;;;;;;;;;4939861;29;20199;-91
2021/12/18 12:51:50;;;;;;;0.10;0.10;;;;;;;;;;4939697;28;20083;-91
2021/12/18 12:54:34;;;;;;;0.10;0.10;;;;;;;;;;4955325;29;20078;-91
2021/12/18 12:57:19;;;;;;;0.10;0.10;;;;;;;;;;4939471;29;20090;-91
2021/12/18 12:59:45;;;;;;;0.10;0.10;;;;;;;;;;4939557;29;20043;-91
2021/12/18 13:02:11;;;;;;;0.10;0.10;;;;;;;;;;4939523;29;20047;-91
2021/12/18 13:04:37;;;;;;;0.10;0.10;;;;;;;;;;4939622;29;20435;-91
2021/12/18 13:07:06;;;;;;;0.10;0.10;;;;;;;;;;4923543;29;20043;-91
2021/12/18 13:09:36;;;;;;;0.10;0.10;;;;;;;;;;4923825;29;20125;-91
2021/12/18 13:12:02;;;;;;;0.10;0.10;;;;;;;;;;4939387;29;20130;-91
2021/12/18 13:14:38;;;;;;;0.10;0.10;;;;;;;;;;4923756;29;20074;-91
2021/12/18 13:17:17;;;;;;;0.10;0.10;;;;;;;;;;4923275;29;20106;-91
2021/12/18 13:20:04;;;;;;;0.10;0.10;;;;;;;;;;4939257;29;20058;-90
2021/12/18 13:22:32;;;;;;;0.10;0.10;;;;;;;;;;4923343;29;20045;-90
2021/12/18 13:25:14;;;;;;;0.10;0.10;;;;;;;;;;4923542;29;20057;-91
2021/12/18 13:27:41;;;;;;;0.10;0.10;;;;;;;;;;4938726;29;20054;-90
2021/12/18 13:30:13;;;;;;;0.10;0.10;;;;;;;;;;4939056;29;20062;-91
2021/12/18 13:32:51;;;;;;;0.10;0.10;;;;;;;;;;4938648;29;20047;-91
2021/12/18 13:35:18;;;;;;;0.30;0.30;;;;;;;;;;4954749;29;20102;-90
2021/12/18 13:37:54;;;;;;;0.10;0.10;;;;;;;;;;4938765;29;20074;-91
2021/12/18 13:40:20;;;;;;;0.10;0.10;;;;;;;;;;4954988;29;20043;-91
2021/12/18 13:42:46;;;;;;;0.10;0.10;;;;;;;;;;4938624;29;20118;-91
2021/12/18 13:45:12;;;;;;;0.10;0.10;;;;;;;;;;4923152;29;20081;-91
2021/12/18 13:47:39;;;;;;;0.10;0.10;;;;;;;;;;4922538;29;20094;-91
2021/12/18 13:50:07;;;;;;;0.10;0.10;;;;;;;;;;4922585;29;20047;-91
2021/12/18 13:52:34;;;;;;;0.10;0.10;;;;;;;;;;4922484;29;20046;-91
2021/12/18 13:55:00;;;;;;;0.10;0.10;;;;;;;;;;4922752;29;20047;-91
2021/12/18 13:57:26;;;;;;;0.10;0.10;;;;;;;;;;4922726;29;20130;-91
2021/12/18 14:00:01;;;;;;;0.10;0.10;;;;;;;;;;4922563;29;20499;-90
2021/12/18 14:02:27;;;;;;;0.20;0.20;;;;;;;;;;4938236;29;20126;-91
2021/12/18 14:04:53;;;;;;;0.10;0.10;;;;;;;;;;4938387;29;20071;-91
2021/12/18 14:07:20;;;;;;;0.10;0.10;;;;;;;;;;4938203;29;20101;-92
2021/12/18 14:09:46;;;;;;;0.10;0.10;;;;;;;;;;4938129;29;20047;-91
2021/12/18 14:12:15;;;;;;;0.10;0.10;;;;;;;;;;4922366;29;20043;-91
2021/12/18 14:14:46;;;;;;;0.10;0.10;;;;;;;;;;4923006;29;20066;-91
2021/12/18 14:17:15;;;;;;;0.10;0.10;;;;;;;;;;4938309;29;20384;-91
2021/12/18 14:19:47;;;;;;;0.10;0.10;;;;;;;;;;4938516;29;20046;-91
2021/12/18 14:22:13;;;;;;;0.10;0.10;;;;;;;;;;4922946;29;20043;-91
2021/12/18 14:24:43;;;;;;;0.10;0.10;;;;;;;;;;4938343;29;20046;-91
2021/12/18 14:27:10;;;;;;;0.10;0.10;;;;;;;;;;4922483;29;20035;-91
2021/12/18 14:29:37;;;;;;;0.10;0.10;;;;;;;;;;4922150;29;20059;-91
2021/12/18 14:32:06;;;;;;;0.10;0.10;;;;;;;;;;4938050;29;20047;-91
2021/12/18 14:34:33;;;;;;;0.10;0.10;;;;;;;;;;4922516;29;20039;-91
2021/12/18 14:37:02;;;;;;;0.10;0.10;;;;;;;;;;4937594;29;20146;-92
2021/12/18 14:39:44;;;;;;;0.10;0.10;;;;;;;;;;4937921;29;20053;-93
2021/12/18 14:42:47;;;;;;;0.10;0.10;;;;;;;;;;4938465;29;20107;-92
2021/12/18 14:45:20;;;;;;;0.20;0.20;;;;;;;;;;4924225;29;20039;-91
2021/12/18 14:47:47;;;;;;;0.20;0.20;;;;;;;;;;4922083;29;20233;-91
2021/12/18 14:50:17;;;;;;;0.10;0.10;;;;;;;;;;4922116;29;20051;-89
2021/12/18 14:52:52;;;;;;;0.10;0.10;;;;;;;;;;4921648;29;20094;-90
2021/12/18 14:55:22;;;;;;;0.10;0.10;;;;;;;;;;4937708;29;20059;-91
2021/12/18 14:58:11;;;;;;;0.10;0.10;;;;;;;;;;4937818;29;20043;-92
2021/12/18 15:00:43;;;;;;;0.10;0.10;;;;;;;;;;4932717;29;20407;-90
2021/12/18 15:03:23;;;;;;;0.10;0.10;;;;;;;;;;4922114;29;20169;-92
2021/12/18 15:05:53;;;;;;;0.10;0.10;;;;;;;;;;4937402;29;20642;-91
2021/12/18 15:08:23;;;;;;;0.20;0.20;;;;;;;;;;4937220;29;20046;-91
2021/12/18 15:10:49;;;;;;;0.10;0.10;;;;;;;;;;4937034;29;20110;-90
2021/12/18 15:13:16;;;;;;;0.10;0.10;;;;;;;;;;4937078;29;20082;-91
2021/12/18 15:15:43;;;;;;;0.20;0.20;;;;;;;;;;4921747;29;20051;-91
2021/12/18 15:18:10;;;;;;;0.10;0.10;;;;;;;;;;4937270;29;20142;-91
2021/12/18 15:20:35;;;;;;;0.10;0.10;;;;;;;;;;4937199;29;20046;-91
2021/12/18 15:23:02;;;;;;;0.10;0.10;;;;;;;;;;4921409;29;20045;-92
2021/12/18 15:25:28;;;;;;;0.20;0.20;;;;;;;;;;4953240;29;20550;-91
2021/12/18 15:27:55;;;;;;;0.10;0.10;;;;;;;;;;4921423;29;20043;-91
2021/12/18 15:30:21;;;;;;;0.10;0.10;;;;;;;;;;4936798;29;20047;-90